65B weather

Lubec Municipal Airport
Lubec, Maine, United States

Public forecast

Using degrees Fahrenheit for public forecast. Weather courtesy of forecast.io.

METAR (pilot weather report)

Closest report is Saint John Airport, 56.1 nm (104.0 km) ENE. Retrieved 2019/08/21 04:00 UTC (24 minutes ago):

CYSJ 210400Z 00000KT 15SM SKC 12/11 A3002 RMK SLP167

TAF (pilot weather forecast)

Forecast is more than 12 hours old.

Closest forecast is Saint John Airport, 56.1 nm (104.0 km) ENE. Retrieved 2019/08/20 00:42 UTC (1 day ago):

TAF CYSJ 202338Z 2100/2112 VRB03KT P6SM SKC BECMG 2100/2102 VRB03KT RMK NXT FCST BY 210600Z